Time;durP1;ratioP1;P1;durP2;ratioP2;P2;SDS_P1;SDS_P2;PMS_P1;PMS_P2;Temp;Humidity;BMP_temperature;BMP_pressure;BME280_temperature;BME280_humidity;BME280_pressure;Samples;Min_cycle;Max_cycle;Signal;HPM_P1;HPM_P2
2024/04/18 00:02:22;;;;;;;9.90;6.15;;;7.00;99.90;;;;;;5486899;26;19990;-48
2024/04/18 00:04:47;;;;;;;7.22;5.47;;;6.90;99.90;;;;;;5467169;26;20006;-45
2024/04/18 00:07:13;;;;;;;5.70;5.03;;;6.90;99.90;;;;;;5451556;26;19986;-50
2024/04/18 00:09:38;;;;;;;5.88;4.88;;;6.90;99.90;;;;;;5418650;26;20007;-44
2024/04/18 00:12:05;;;;;;;7.38;4.90;;;6.80;99.90;;;;;;5450847;26;19998;-49
2024/04/18 00:14:30;;;;;;;4.95;4.55;;;6.90;99.90;;;;;;5450837;26;19991;-45
2024/04/18 00:16:56;;;;;;;8.70;5.53;;;6.90;99.90;;;;;;5450744;26;19991;-49
2024/04/18 00:19:21;;;;;;;9.32;5.80;;;6.90;99.90;;;;;;5450496;26;19991;-51
2024/04/18 00:21:46;;;;;;;10.43;5.80;;;7.00;99.90;;;;;;5449842;26;19994;-47
2024/04/18 00:24:12;;;;;;;8.25;5.38;;;7.00;99.90;;;;;;5418940;26;19991;-47
2024/04/18 00:26:38;;;;;;;7.72;5.80;;;7.10;99.90;;;;;;5450722;26;19994;-48
2024/04/18 00:29:03;;;;;;;5.82;5.32;;;7.10;99.90;;;;;;5450335;26;19987;-52
2024/04/18 00:31:29;;;;;;;7.57;5.63;;;7.20;99.90;;;;;;5450343;26;20058;-48
2024/04/18 00:33:54;;;;;;;6.85;5.32;;;7.20;99.90;;;;;;5450351;26;20446;-46
2024/04/18 00:36:19;;;;;;;7.03;6.20;;;7.20;99.90;;;;;;5450346;26;20408;-47
2024/04/18 00:38:45;;;;;;;6.63;6.03;;;7.30;99.90;;;;;;5450519;26;19995;-47
2024/04/18 00:41:11;;;;;;;9.27;6.35;;;7.30;99.90;;;;;;5418409;26;20005;-48
2024/04/18 00:43:37;;;;;;;8.35;6.10;;;7.30;99.90;;;;;;5450219;26;20331;-47
2024/04/18 00:46:05;;;;;;;8.20;6.63;;;7.30;99.90;;;;;;5450700;26;20421;-46
2024/04/18 00:48:31;;;;;;;6.85;6.03;;;7.30;99.90;;;;;;5453562;26;20067;-45
2024/04/18 00:51:00;;;;;;;7.13;6.20;;;7.30;99.90;;;;;;5453654;26;20006;-48
2024/04/18 00:53:26;;;;;;;7.13;6.43;;;7.40;99.90;;;;;;5453665;26;19995;-47
2024/04/18 00:55:56;;;;;;;7.18;6.40;;;7.40;99.90;;;;;;5421920;26;19995;-46
2024/04/18 00:58:24;;;;;;;8.82;6.57;;;7.40;99.90;;;;;;5453625;26;20346;-52
2024/04/18 01:00:51;;;;;;;11.65;5.68;;;7.50;99.90;;;;;;5453828;26;19999;-47
2024/04/18 01:03:17;;;;;;;7.30;5.05;;;7.50;99.90;;;;;;5453705;26;20014;-47
2024/04/18 01:05:42;;;;;;;5.00;4.32;;;7.50;99.90;;;;;;5421815;26;19994;-50
2024/04/18 01:08:08;;;;;;;7.22;4.50;;;7.40;99.90;;;;;;5453865;26;20018;-48
2024/04/18 01:10:34;;;;;;;5.00;4.35;;;7.40;99.90;;;;;;5421795;26;19995;-49
2024/04/18 01:13:00;;;;;;;4.68;3.30;;;7.40;99.90;;;;;;5453786;26;20025;-49
2024/04/18 01:15:27;;;;;;;6.82;4.05;;;7.30;99.90;;;;;;5453142;26;19991;-49
2024/04/18 01:17:53;;;;;;;5.38;4.03;;;7.30;99.90;;;;;;5421423;26;20034;-44
2024/04/18 01:20:21;;;;;;;4.90;3.30;;;7.30;99.90;;;;;;5453193;26;20009;-48
2024/04/18 01:22:46;;;;;;;4.00;3.42;;;7.20;99.90;;;;;;5452760;26;20071;-45
2024/04/18 01:25:12;;;;;;;3.40;3.10;;;7.20;99.90;;;;;;5453703;26;20007;-48
2024/04/18 01:27:38;;;;;;;3.92;3.60;;;7.10;99.90;;;;;;5453429;26;19995;-48
2024/04/18 01:30:04;;;;;;;8.30;3.75;;;7.00;99.90;;;;;;5452462;26;19995;-51
2024/04/18 01:32:33;;;;;;;4.35;3.95;;;7.00;99.90;;;;;;5421236;26;20352;-47
2024/04/18 01:34:59;;;;;;;7.43;5.13;;;7.00;99.90;;;;;;5452894;26;19999;-49
2024/04/18 01:37:24;;;;;;;5.95;5.43;;;6.90;99.90;;;;;;5453323;26;20006;-45
2024/04/18 01:39:50;;;;;;;7.90;6.18;;;6.90;99.90;;;;;;5421162;26;20007;-48
2024/04/18 01:42:15;;;;;;;8.82;6.60;;;6.90;99.90;;;;;;5453201;26;20010;-55
2024/04/18 01:44:42;;;;;;;6.05;5.43;;;7.00;99.90;;;;;;5452802;26;19999;-48
2024/04/18 01:47:07;;;;;;;6.72;5.95;;;7.00;99.90;;;;;;5453030;26;19995;-47
2024/04/18 01:49:33;;;;;;;8.90;6.15;;;7.10;99.90;;;;;;5453203;26;19998;-49
2024/04/18 01:51:58;;;;;;;8.18;6.28;;;7.10;99.90;;;;;;5452738;26;19995;-51
2024/04/18 01:54:24;;;;;;;9.77;6.82;;;7.10;99.90;;;;;;5421222;26;19999;-48
2024/04/18 01:56:49;;;;;;;11.95;6.90;;;7.10;99.90;;;;;;5452774;26;20441;-50
2024/04/18 01:59:15;;;;;;;8.80;6.50;;;7.20;99.90;;;;;;5451645;26;20010;-50
2024/04/18 02:01:40;;;;;;;6.20;5.50;;;7.20;99.90;;;;;;5452659;26;19995;-49
2024/04/18 02:04:06;;;;;;;7.00;5.90;;;7.20;99.90;;;;;;5452737;26;20005;-46
2024/04/18 02:06:31;;;;;;;7.72;6.03;;;7.20;99.90;;;;;;5452891;26;20002;-51
2024/04/18 02:08:57;;;;;;;6.25;5.70;;;7.20;99.90;;;;;;5452853;26;19991;-50
2024/04/18 02:11:22;;;;;;;7.72;6.72;;;7.20;99.90;;;;;;5452856;26;19992;-44
2024/04/18 02:13:48;;;;;;;7.82;6.90;;;7.10;99.90;;;;;;5452931;26;20006;-45
2024/04/18 02:16:13;;;;;;;8.90;6.90;;;7.10;99.90;;;;;;5453688;26;20469;-47
2024/04/18 02:18:39;;;;;;;8.05;6.88;;;7.10;99.90;;;;;;5454175;26;19995;-50
2024/04/18 02:21:04;;;;;;;7.97;7.10;;;7.10;99.90;;;;;;5453585;26;20006;-46
2024/04/18 02:23:30;;;;;;;8.45;6.75;;;7.10;99.90;;;;;;5421385;26;20024;-47
2024/04/18 02:25:55;;;;;;;8.95;6.75;;;7.10;99.90;;;;;;5452564;26;20077;-48
2024/04/18 02:28:21;;;;;;;10.05;7.25;;;7.00;99.90;;;;;;5452377;26;19994;-48
2024/04/18 02:30:47;;;;;;;10.35;7.00;;;6.90;99.90;;;;;;5452374;26;20438;-50
2024/04/18 02:33:14;;;;;;;9.02;7.95;;;6.90;99.90;;;;;;5452438;26;20010;-48
2024/04/18 02:35:39;;;;;;;9.30;8.32;;;6.90;99.90;;;;;;5452964;26;19995;-47
2024/04/18 02:38:05;;;;;;;8.07;7.28;;;6.90;99.90;;;;;;5452016;26;20067;-45
2024/04/18 02:40:30;;;;;;;8.52;7.43;;;6.90;99.90;;;;;;5451797;26;20006;-48
2024/04/18 02:42:56;;;;;;;10.13;8.00;;;6.90;99.90;;;;;;5452272;26;19999;-50
2024/04/18 02:45:21;;;;;;;9.50;7.40;;;6.90;99.90;;;;;;5451861;26;19999;-46
2024/04/18 02:47:47;;;;;;;8.68;7.65;;;6.90;99.90;;;;;;5452320;26;20462;-46
2024/04/18 02:50:12;;;;;;;9.13;7.85;;;7.00;99.90;;;;;;5451736;26;19995;-47
2024/04/18 02:52:38;;;;;;;10.30;7.60;;;7.00;99.90;;;;;;5451904;26;20007;-48
2024/04/18 02:55:04;;;;;;;11.15;7.55;;;7.10;99.90;;;;;;5451789;26;20005;-47
2024/04/18 02:57:29;;;;;;;9.57;7.32;;;6.70;99.90;;;;;;5452080;26;19990;-47
2024/04/18 02:59:57;;;;;;;8.57;7.78;;;7.00;99.90;;;;;;5451299;26;20005;-46
2024/04/18 03:02:26;;;;;;;9.90;7.78;;;6.80;99.90;;;;;;5452008;26;19999;-46
2024/04/18 03:04:52;;;;;;;8.93;8.02;;;6.70;99.90;;;;;;5420233;26;20003;-49
2024/04/18 03:07:17;;;;;;;10.85;8.40;;;6.60;99.90;;;;;;5451538;26;20526;-46
2024/04/18 03:09:43;;;;;;;9.50;8.07;;;6.50;99.90;;;;;;5419253;26;20079;-47
2024/04/18 03:12:09;;;;;;;10.43;7.70;;;6.50;99.90;;;;;;5419989;26;20346;-47
2024/04/18 03:14:34;;;;;;;9.85;8.25;;;6.40;99.90;;;;;;5451456;26;19995;-46
2024/04/18 03:17:00;;;;;;;8.52;7.55;;;6.30;99.90;;;;;;5451485;26;20454;-46
2024/04/18 03:19:25;;;;;;;9.40;7.90;;;6.30;99.90;;;;;;5451453;26;19995;-51
2024/04/18 03:21:51;;;;;;;10.57;7.82;;;6.30;99.90;;;;;;5451035;26;20362;-46
2024/04/18 03:24:22;;;;;;;13.02;8.27;;;6.30;99.90;;;;;;5451316;26;19995;-46
2024/04/18 03:26:49;;;;;;;13.57;8.65;;;6.40;99.90;;;;;;5451538;26;20009;-50
2024/04/18 03:29:14;;;;;;;15.43;8.65;;;6.10;99.90;;;;;;5451279;26;19994;-46
2024/04/18 03:31:46;;;;;;;13.25;9.15;;;6.50;99.90;;;;;;5450971;26;19994;-48
2024/04/18 03:34:12;;;;;;;10.48;9.00;;;6.50;99.90;;;;;;5451502;26;20063;-48
2024/04/18 03:36:45;;;;;;;9.50;8.40;;;6.50;99.90;;;;;;5451334;26;19998;-46
2024/04/18 03:39:10;;;;;;;9.60;8.60;;;6.40;99.90;;;;;;5419522;26;19999;-47
2024/04/18 03:41:39;;;;;;;12.10;8.68;;;6.40;99.90;;;;;;5390118;26;20071;-45
2024/04/18 03:44:08;;;;;;;10.32;8.00;;;6.40;99.90;;;;;;5450780;26;20342;-46
2024/04/18 03:46:38;;;;;;;8.88;7.78;;;6.40;99.90;;;;;;5419546;26;20010;-45
2024/04/18 03:49:04;;;;;;;11.32;8.15;;;6.30;99.90;;;;;;5451084;26;20010;-46
2024/04/18 03:51:30;;;;;;;9.85;8.05;;;6.40;99.90;;;;;;5419107;26;19991;-46
2024/04/18 03:53:56;;;;;;;11.68;9.23;;;6.30;99.90;;;;;;5450925;26;20010;-49
2024/04/18 03:56:21;;;;;;;11.40;8.40;;;6.30;99.90;;;;;;5451158;26;19995;-45
2024/04/18 03:58:47;;;;;;;8.95;7.90;;;6.40;99.90;;;;;;5418962;26;20006;-48
2024/04/18 04:01:13;;;;;;;9.85;8.77;;;6.40;99.90;;;;;;5450676;26;19998;-51
2024/04/18 04:03:38;;;;;;;9.43;8.27;;;6.40;99.90;;;;;;5450853;26;20434;-45
2024/04/18 04:06:04;;;;;;;9.82;8.23;;;6.40;99.90;;;;;;5451046;26;20079;-45
2024/04/18 04:08:29;;;;;;;9.43;7.93;;;6.50;99.90;;;;;;5450794;26;19999;-43
2024/04/18 04:10:55;;;;;;;9.50;8.60;;;6.50;99.90;;;;;;5450374;26;20035;-46
2024/04/18 04:13:20;;;;;;;8.70;7.78;;;6.60;99.90;;;;;;5450804;26;20006;-45
2024/04/18 04:15:49;;;;;;;9.10;7.43;;;6.60;99.90;;;;;;5450786;26;20067;-47
2024/04/18 04:18:15;;;;;;;9.48;8.13;;;6.70;99.90;;;;;;5450565;26;20373;-47
2024/04/18 04:20:42;;;;;;;9.93;8.75;;;6.80;99.90;;;;;;5449565;26;19998;-45
2024/04/18 04:23:07;;;;;;;8.65;7.70;;;6.80;99.90;;;;;;5418400;26;19999;-47
2024/04/18 04:25:33;;;;;;;9.50;7.65;;;6.80;99.90;;;;;;5418598;26;19995;-46
2024/04/18 04:27:58;;;;;;;10.93;8.18;;;6.80;99.90;;;;;;5450526;26;19998;-50
2024/04/18 04:30:24;;;;;;;13.60;8.60;;;6.80;99.90;;;;;;5418511;26;20450;-48
2024/04/18 04:32:49;;;;;;;9.38;7.55;;;6.80;99.90;;;;;;5451358;26;19999;-44
2024/04/18 04:35:15;;;;;;;12.55;8.43;;;6.80;99.90;;;;;;5450716;26;20009;-46
2024/04/18 04:37:40;;;;;;;11.05;8.05;;;6.90;99.90;;;;;;5450351;26;19995;-46
2024/04/18 04:40:06;;;;;;;12.35;8.35;;;6.90;99.90;;;;;;5449862;26;20002;-46
2024/04/18 04:42:35;;;;;;;8.40;7.60;;;6.90;99.90;;;;;;5450105;26;19995;-45
2024/04/18 04:45:01;;;;;;;10.23;8.63;;;6.90;99.90;;;;;;5450037;26;20006;-46
2024/04/18 04:47:26;;;;;;;11.20;9.13;;;6.90;99.90;;;;;;5450137;26;20073;-44
2024/04/18 04:49:52;;;;;;;11.07;8.38;;;6.90;99.90;;;;;;5418062;26;20022;-46
2024/04/18 04:52:18;;;;;;;10.05;8.23;;;7.00;99.90;;;;;;5450174;26;20040;-45
2024/04/18 04:54:49;;;;;;;9.82;7.90;;;7.00;99.90;;;;;;5449730;26;19998;-47
2024/04/18 04:57:14;;;;;;;11.05;8.80;;;7.00;99.90;;;;;;5450117;26;20365;-46
2024/04/18 04:59:40;;;;;;;12.52;9.43;;;7.00;99.90;;;;;;5417713;26;20010;-43
2024/04/18 05:02:06;;;;;;;13.30;8.57;;;7.00;99.90;;;;;;5449900;26;20010;-47
2024/04/18 05:04:31;;;;;;;10.27;8.98;;;7.10;99.90;;;;;;5449785;26;19999;-45
2024/04/18 05:06:57;;;;;;;10.80;8.98;;;7.00;99.90;;;;;;5449701;26;20462;-50
2024/04/18 05:09:23;;;;;;;9.25;8.18;;;7.10;99.90;;;;;;5449892;26;20331;-45
2024/04/18 05:11:49;;;;;;;10.30;8.20;;;7.10;99.90;;;;;;5417945;26;19995;-47
2024/04/18 05:14:14;;;;;;;9.10;8.10;;;7.10;99.90;;;;;;5449824;26;19994;-49
2024/04/18 05:16:40;;;;;;;13.68;8.80;;;7.10;99.90;;;;;;5417873;26;20005;-48
2024/04/18 05:19:06;;;;;;;10.65;7.97;;;7.10;99.90;;;;;;5450287;26;20079;-47
2024/04/18 05:21:32;;;;;;;9.48;8.10;;;7.10;99.90;;;;;;5417262;26;20067;-46
2024/04/18 05:23:58;;;;;;;11.18;7.95;;;7.20;99.90;;;;;;5449558;26;20275;-44
2024/04/18 05:26:31;;;;;;;9.45;8.02;;;7.20;99.90;;;;;;5449554;26;20315;-46
2024/04/18 05:31:41;;;;;;;8.50;7.20;;;7.30;99.90;;;;;;5449132;26;20010;-47
2024/04/18 05:34:07;;;;;;;11.57;8.20;;;7.30;99.90;;;;;;5452830;26;19995;-45
2024/04/18 05:36:32;;;;;;;12.23;8.07;;;7.20;99.90;;;;;;5453164;26;20071;-46
2024/04/18 05:38:58;;;;;;;11.75;8.05;;;7.30;99.90;;;;;;5453278;26;19995;-46
2024/04/18 05:41:25;;;;;;;10.88;8.15;;;7.20;99.90;;;;;;5421126;26;20006;-48
2024/04/18 05:43:51;;;;;;;10.70;8.45;;;7.30;99.90;;;;;;5452792;26;20067;-48
2024/04/18 05:46:16;;;;;;;10.82;8.10;;;7.30;99.90;;;;;;5452823;26;19998;-46
2024/04/18 05:48:42;;;;;;;11.30;8.23;;;7.30;99.90;;;;;;5453154;26;20006;-46
2024/04/18 05:51:07;;;;;;;12.15;8.95;;;7.40;99.90;;;;;;5420847;26;19994;-46
2024/04/18 05:53:33;;;;;;;13.20;8.60;;;7.40;99.90;;;;;;5420826;26;19999;-49
2024/04/18 05:55:58;;;;;;;10.60;8.52;;;7.50;99.90;;;;;;5474976;21;20023;-50
2024/04/18 05:58:24;;;;;;;9.55;8.43;;;7.60;99.90;;;;;;5455078;26;20063;-51
2024/04/18 06:00:49;;;;;;;10.20;7.80;;;7.70;99.90;;;;;;5454732;26;19995;-52
2024/04/18 06:03:15;;;;;;;9.85;7.60;;;7.80;99.90;;;;;;5454797;26;19999;-49
2024/04/18 06:05:40;;;;;;;12.82;7.03;;;7.80;99.90;;;;;;5432910;26;20453;-51
2024/04/18 06:08:06;;;;;;;9.70;7.63;;;8.00;99.90;;;;;;5387233;26;19995;-49
2024/04/18 06:10:31;;;;;;;10.00;7.97;;;7.90;99.90;;;;;;5387416;26;20339;-54
2024/04/18 06:12:57;;;;;;;12.07;8.27;;;7.90;99.90;;;;;;5418471;26;19995;-52
2024/04/18 06:15:22;;;;;;;10.27;7.97;;;8.00;99.90;;;;;;5418123;26;19991;-53
2024/04/18 06:17:48;;;;;;;8.77;7.80;;;8.00;99.90;;;;;;5418834;26;19995;-49
2024/04/18 06:20:13;;;;;;;12.13;8.13;;;7.90;99.90;;;;;;5387479;26;20002;-48
2024/04/18 06:22:39;;;;;;;8.07;7.20;;;8.00;99.90;;;;;;5419185;26;20003;-50
2024/04/18 06:25:05;;;;;;;11.52;8.48;;;8.10;99.90;;;;;;5387336;26;19992;-50
2024/04/18 06:27:30;;;;;;;12.63;7.75;;;8.20;99.90;;;;;;5418515;26;20077;-52
2024/04/18 06:29:55;;;;;;;9.55;7.63;;;8.20;99.90;;;;;;5418495;26;19992;-50
2024/04/18 06:32:21;;;;;;;10.02;6.20;;;8.30;99.90;;;;;;5386929;26;20072;-48
2024/04/18 06:34:47;;;;;;;9.90;6.10;;;8.30;99.90;;;;;;5418157;26;19995;-51
2024/04/18 06:37:12;;;;;;;9.80;6.32;;;8.60;99.90;;;;;;5417655;26;19992;-49
2024/04/18 06:39:38;;;;;;;10.68;6.13;;;8.80;99.90;;;;;;5418794;26;20024;-50
2024/04/18 06:42:04;;;;;;;5.43;4.90;;;9.00;99.90;;;;;;5418195;26;19991;-50
2024/04/18 06:44:29;;;;;;;8.18;5.72;;;9.20;99.90;;;;;;5386845;26;20003;-50
2024/04/18 06:46:55;;;;;;;6.82;5.30;;;9.20;99.90;;;;;;5418225;26;19991;-52
2024/04/18 06:49:20;;;;;;;7.22;5.50;;;9.10;99.90;;;;;;5416352;26;19995;-55
2024/04/18 06:51:46;;;;;;;5.75;5.20;;;9.30;99.90;;;;;;5393314;26;20459;-49
2024/04/18 06:54:13;;;;;;;6.47;5.70;;;9.40;99.90;;;;;;5385739;26;20100;-49
2024/04/18 06:56:38;;;;;;;8.05;6.50;;;9.90;99.90;;;;;;5416584;26;19995;-48
2024/04/18 06:59:04;;;;;;;8.57;6.60;;;10.20;99.90;;;;;;5416970;26;20003;-50
2024/04/18 07:01:29;;;;;;;6.88;6.28;;;10.20;99.90;;;;;;5419283;26;20068;-50
2024/04/18 07:03:55;;;;;;;7.38;6.30;;;10.30;99.90;;;;;;5386696;26;20478;-50
2024/04/18 07:06:20;;;;;;;11.00;6.20;;;10.10;99.90;;;;;;5417795;26;20010;-51
2024/04/18 07:08:46;;;;;;;9.35;6.63;;;10.10;99.90;;;;;;5417964;26;19995;-51
2024/04/18 07:11:11;;;;;;;8.25;6.53;;;9.90;99.90;;;;;;5416500;26;19999;-50
2024/04/18 07:13:37;;;;;;;8.68;6.50;;;9.80;99.90;;;;;;5419069;26;20405;-53
2024/04/18 07:16:04;;;;;;;7.82;6.50;;;9.70;99.90;;;;;;5417965;26;20454;-53
2024/04/18 07:18:29;;;;;;;10.63;7.10;;;9.60;99.90;;;;;;5387964;26;20484;-51
2024/04/18 07:20:55;;;;;;;11.40;6.82;;;9.60;99.90;;;;;;5418352;26;20003;-52
2024/04/18 07:23:21;;;;;;;9.10;7.07;;;9.80;99.90;;;;;;5418692;26;20003;-56
2024/04/18 07:25:47;;;;;;;9.38;7.35;;;9.90;99.90;;;;;;5418747;26;19995;-50
2024/04/18 07:28:12;;;;;;;9.40;7.53;;;10.00;99.90;;;;;;5387074;26;20439;-53
2024/04/18 07:30:39;;;;;;;8.98;7.90;;;9.90;99.90;;;;;;5417073;26;20002;-50
2024/04/18 07:33:05;;;;;;;11.43;7.13;;;9.90;99.90;;;;;;5416671;26;20086;-55
2024/04/18 07:35:30;;;;;;;8.82;6.70;;;9.70;99.90;;;;;;5387274;26;20003;-54
2024/04/18 07:37:56;;;;;;;9.60;7.03;;;9.40;99.90;;;;;;5386930;26;20002;-53
2024/04/18 07:40:22;;;;;;;10.80;7.47;;;9.40;99.90;;;;;;5418822;26;20041;-55
2024/04/18 07:42:49;;;;;;;10.48;7.38;;;9.40;99.90;;;;;;5387660;26;20006;-56
2024/04/18 07:45:17;;;;;;;8.85;7.35;;;9.50;99.90;;;;;;5416704;26;20060;-52
2024/04/18 07:47:44;;;;;;;7.22;6.50;;;9.50;99.90;;;;;;5416268;26;20007;-51
2024/04/18 07:50:10;;;;;;;9.20;6.88;;;9.60;99.90;;;;;;5416311;26;20015;-49
2024/04/18 07:52:35;;;;;;;6.82;6.20;;;9.40;99.90;;;;;;5415352;26;20011;-51
2024/04/18 07:55:01;;;;;;;6.22;5.63;;;9.40;99.90;;;;;;5415318;26;19999;-49
2024/04/18 07:57:27;;;;;;;8.50;7.20;;;9.40;99.90;;;;;;5382777;26;19999;-50
2024/04/18 07:59:52;;;;;;;7.00;6.13;;;9.40;99.90;;;;;;5414661;26;20011;-47
2024/04/18 08:02:18;;;;;;;8.98;6.93;;;9.20;99.90;;;;;;5415257;26;20104;-49
2024/04/18 08:04:44;;;;;;;10.93;7.15;;;9.10;99.90;;;;;;5414796;26;19996;-49
2024/04/18 08:07:10;;;;;;;12.13;7.28;;;9.10;99.90;;;;;;5414818;26;20011;-55
2024/04/18 08:09:35;;;;;;;12.57;7.50;;;9.20;99.90;;;;;;5382740;26;20409;-48
2024/04/18 08:12:02;;;;;;;9.57;6.47;;;9.10;99.90;;;;;;5413188;26;20462;-49
2024/04/18 08:14:28;;;;;;;7.10;5.57;;;9.10;99.90;;;;;;5414878;26;20018;-51
2024/04/18 08:16:53;;;;;;;5.75;4.88;;;8.90;99.90;;;;;;5414952;26;20447;-45
2024/04/18 08:19:19;;;;;;;6.53;5.65;;;8.80;99.90;;;;;;5414446;26;20000;-48
2024/04/18 08:21:44;;;;;;;7.47;5.82;;;8.70;99.90;;;;;;5414237;26;20010;-52
2024/04/18 08:24:18;;;;;;;9.63;6.65;;;8.70;99.90;;;;;;5414807;26;20072;-52
2024/04/18 08:26:44;;;;;;;7.70;5.25;;;8.60;99.90;;;;;;5414834;26;20003;-50
2024/04/18 08:29:10;;;;;;;6.57;5.65;;;8.60;99.90;;;;;;5414269;26;20064;-54
2024/04/18 08:31:36;;;;;;;6.35;5.38;;;8.70;99.90;;;;;;5414127;26;20007;-48
2024/04/18 08:34:03;;;;;;;9.77;5.85;;;8.70;99.90;;;;;;5414309;26;20003;-48
2024/04/18 08:36:29;;;;;;;7.57;5.22;;;8.70;99.90;;;;;;5414151;26;19995;-48
2024/04/18 08:38:55;;;;;;;6.95;4.95;;;8.80;99.90;;;;;;5414160;26;20003;-48
2024/04/18 08:41:20;;;;;;;6.75;4.90;;;8.80;99.90;;;;;;5414035;26;20076;-50
2024/04/18 08:43:47;;;;;;;6.03;4.90;;;8.90;99.90;;;;;;5414199;26;20014;-51
2024/04/18 08:46:15;;;;;;;4.70;4.20;;;9.00;99.90;;;;;;5413999;26;20072;-50
2024/04/18 08:48:41;;;;;;;8.02;4.10;;;9.20;99.90;;;;;;5414654;26;20027;-50
2024/04/18 08:51:07;;;;;;;5.47;4.28;;;9.20;99.90;;;;;;5417498;26;20006;-54
2024/04/18 08:53:33;;;;;;;7.32;4.93;;;9.20;99.90;;;;;;5415180;26;20003;-54
2024/04/18 08:56:00;;;;;;;5.95;4.35;;;9.30;99.90;;;;;;5415653;26;20003;-53
2024/04/18 08:58:26;;;;;;;4.75;4.03;;;9.50;99.90;;;;;;5415399;26;20000;-52
2024/04/18 09:00:51;;;;;;;5.90;4.40;;;9.60;99.90;;;;;;5398519;26;20499;-60
2024/04/18 09:03:17;;;;;;;7.20;5.57;;;9.50;99.90;;;;;;5401803;26;20000;-51
2024/04/18 09:05:45;;;;;;;7.45;4.60;;;9.50;99.90;;;;;;5403044;26;20074;-57
2024/04/18 09:08:12;;;;;;;5.93;4.60;;;9.50;99.90;;;;;;5387666;26;19995;-61
2024/04/18 09:10:40;;;;;;;6.43;4.60;;;9.50;99.90;;;;;;5388425;26;20026;-63
2024/04/18 09:13:05;;;;;;;5.50;4.22;;;9.40;99.90;;;;;;5406177;26;19999;-59
2024/04/18 09:15:31;;;;;;;5.72;4.80;;;9.40;99.90;;;;;;5390590;26;20484;-59
2024/04/18 09:18:07;;;;;;;5.78;4.60;;;9.20;99.90;;;;;;5407818;26;20022;-59
2024/04/18 09:20:35;;;;;;;5.20;4.70;;;9.20;99.90;;;;;;5402391;26;20051;-61
2024/04/18 09:23:01;;;;;;;6.07;5.13;;;9.20;99.90;;;;;;5407970;26;20003;-57
2024/04/18 09:25:27;;;;;;;5.45;4.95;;;9.10;99.90;;;;;;5405435;26;21398;-53
2024/04/18 09:27:52;;;;;;;5.10;4.45;;;9.00;99.90;;;;;;5408389;26;20019;-55
2024/04/18 09:30:18;;;;;;;6.25;5.18;;;9.00;99.90;;;;;;5406085;26;20463;-50
2024/04/18 09:32:44;;;;;;;9.45;5.85;;;9.00;99.90;;;;;;5406669;26;20003;-51
2024/04/18 09:35:10;;;;;;;8.93;6.40;;;9.10;99.90;;;;;;5406224;26;20000;-56
2024/04/18 09:37:39;;;;;;;7.28;6.25;;;8.90;99.90;;;;;;5406012;26;20347;-50
2024/04/18 09:40:09;;;;;;;9.38;5.95;;;8.90;99.90;;;;;;5403853;26;20040;-51
2024/04/18 09:42:47;;;;;;;7.53;6.50;;;8.90;99.90;;;;;;5406430;26;20018;-58
2024/04/18 09:45:19;;;;;;;9.80;7.72;;;9.00;99.90;;;;;;5406306;26;21580;-61
2024/04/18 09:47:47;;;;;;;7.40;5.63;;;8.80;99.90;;;;;;5404342;26;20018;-60
2024/04/18 09:50:13;;;;;;;6.63;5.97;;;8.80;99.90;;;;;;5392839;26;20004;-59
2024/04/18 09:52:40;;;;;;;7.53;5.72;;;8.90;99.90;;;;;;5427959;26;20010;-62
2024/04/18 09:55:08;;;;;;;7.20;6.00;;;9.10;99.90;;;;;;5404400;26;20008;-58
2024/04/18 09:57:35;;;;;;;9.60;6.43;;;9.40;99.90;;;;;;5402007;26;20490;-55
2024/04/18 10:00:02;;;;;;;9.50;6.00;;;9.80;99.90;;;;;;5403475;26;20004;-58
2024/04/18 10:02:29;;;;;;;6.93;6.13;;;10.30;99.90;;;;;;5407081;26;20012;-48
2024/04/18 10:04:55;;;;;;;8.43;6.20;;;10.90;99.90;;;;;;5406404;26;20469;-51
2024/04/18 10:07:23;;;;;;;6.15;5.55;;;10.90;99.90;;;;;;5401797;26;20007;-55
2024/04/18 10:09:51;;;;;;;8.27;6.50;;;11.30;99.90;;;;;;5428435;26;20018;-50
2024/04/18 10:12:18;;;;;;;5.35;4.85;;;11.30;99.90;;;;;;5402385;26;20494;-60
2024/04/18 10:14:43;;;;;;;7.75;5.10;;;11.00;99.90;;;;;;5405053;26;20523;-62
2024/04/18 10:17:30;;;;;;;5.70;5.05;;;10.70;99.90;;;;;;5404618;26;20011;-60
2024/04/18 10:20:04;;;;;;;5.63;4.90;;;10.30;99.90;;;;;;5402450;26;20000;-60
2024/04/18 10:22:30;;;;;;;5.68;5.03;;;10.40;99.90;;;;;;5405914;26;20007;-61
2024/04/18 10:24:55;;;;;;;6.65;5.40;;;10.70;99.90;;;;;;5405338;26;20043;-58
2024/04/18 10:27:22;;;;;;;4.38;3.97;;;10.90;99.90;;;;;;5404689;26;20509;-60
2024/04/18 10:29:53;;;;;;;8.38;5.70;;;11.00;99.90;;;;;;5402090;26;20626;-61
2024/04/18 10:32:19;;;;;;;18.60;8.23;;;11.10;99.90;;;;;;5405616;26;20035;-62
2024/04/18 10:34:45;;;;;;;7.20;5.53;;;11.00;99.90;;;;;;5405419;26;20377;-57
2024/04/18 10:37:18;;;;;;;3.78;3.47;;;10.60;99.90;;;;;;5406479;26;20072;-53
2024/04/18 10:39:47;;;;;;;4.88;3.70;;;10.90;99.90;;;;;;5414444;26;20339;-55
2024/04/18 10:42:14;;;;;;;5.18;3.40;;;11.10;99.90;;;;;;5422032;26;19999;-56
2024/04/18 10:44:40;;;;;;;8.20;4.97;;;11.10;99.90;;;;;;5422752;26;20011;-52
2024/04/18 10:47:06;;;;;;;3.92;3.53;;;10.80;99.90;;;;;;5419509;26;19999;-56
2024/04/18 10:49:33;;;;;;;3.72;3.33;;;11.10;99.90;;;;;;5416805;26;20347;-60
2024/04/18 10:51:59;;;;;;;3.35;3.05;;;11.40;99.90;;;;;;5418576;26;20010;-53
2024/04/18 10:54:26;;;;;;;5.53;3.22;;;11.40;99.90;;;;;;5415511;26;20003;-49
2024/04/18 10:56:52;;;;;;;4.07;3.22;;;11.00;98.80;;;;;;5413978;26;20014;-50
2024/04/18 10:59:18;;;;;;;2.88;2.67;;;10.80;99.80;;;;;;5415395;26;20007;-53
2024/04/18 11:01:43;;;;;;;3.60;3.20;;;10.90;99.90;;;;;;5415823;26;19999;-50
2024/04/18 11:04:10;;;;;;;4.70;3.10;;;10.90;99.90;;;;;;5416073;26;20011;-52
2024/04/18 11:06:39;;;;;;;3.50;3.22;;;11.00;99.90;;;;;;5415957;26;20072;-53
2024/04/18 11:09:05;;;;;;;4.25;3.25;;;11.20;99.90;;;;;;5415884;26;20436;-51
2024/04/18 11:11:33;;;;;;;4.93;3.65;;;11.20;99.90;;;;;;5415724;26;20069;-50
2024/04/18 11:13:59;;;;;;;3.97;3.67;;;11.40;99.90;;;;;;5415927;26;20010;-49
2024/04/18 11:16:26;;;;;;;3.15;2.78;;;11.60;99.20;;;;;;5415868;26;20045;-53
2024/04/18 11:18:55;;;;;;;3.33;3.10;;;11.90;99.90;;;;;;5415790;26;19992;-54
2024/04/18 11:21:23;;;;;;;3.75;2.90;;;12.10;99.90;;;;;;5415592;26;20007;-50
2024/04/18 11:23:52;;;;;;;3.58;3.15;;;12.00;99.50;;;;;;5416119;26;20469;-52
2024/04/18 11:26:19;;;;;;;4.32;3.03;;;11.70;99.00;;;;;;5415968;26;20071;-51
2024/04/18 11:28:51;;;;;;;5.85;3.28;;;11.70;99.50;;;;;;5415803;26;20035;-55
2024/04/18 11:31:16;;;;;;;4.15;3.20;;;12.00;99.70;;;;;;5384065;26;20048;-50
2024/04/18 11:33:43;;;;;;;4.50;2.60;;;12.20;98.70;;;;;;5384430;26;19999;-50
2024/04/18 11:36:08;;;;;;;2.50;2.33;;;12.30;97.70;;;;;;5415243;26;20348;-51
2024/04/18 11:38:34;;;;;;;3.10;2.78;;;12.30;97.70;;;;;;5415642;26;20029;-54
2024/04/18 11:41:00;;;;;;;6.10;3.00;;;12.40;98.10;;;;;;5415295;26;20010;-49
2024/04/18 11:43:26;;;;;;;3.08;2.70;;;12.50;97.10;;;;;;5415669;26;20029;-53
2024/04/18 11:45:51;;;;;;;4.25;2.53;;;12.30;98.40;;;;;;5415574;26;20007;-50
2024/04/18 11:48:17;;;;;;;4.32;2.15;;;12.20;98.40;;;;;;5384038;26;20029;-48
2024/04/18 11:50:42;;;;;;;3.03;2.30;;;12.00;95.60;;;;;;5383656;26;20063;-51
2024/04/18 11:53:09;;;;;;;3.53;3.22;;;12.00;97.30;;;;;;5415324;26;20010;-49
2024/04/18 11:55:35;;;;;;;4.95;2.60;;;12.00;97.70;;;;;;5415687;26;20006;-48
2024/04/18 11:58:02;;;;;;;2.25;2.13;;;12.00;97.00;;;;;;5415155;26;20010;-53
2024/04/18 12:00:28;;;;;;;2.33;2.13;;;12.20;94.90;;;;;;5414466;26;19995;-49
2024/04/18 12:02:55;;;;;;;3.28;1.90;;;12.30;94.50;;;;;;5383460;26;20014;-49
2024/04/18 12:05:23;;;;;;;2.97;2.67;;;12.50;96.00;;;;;;5414973;26;20068;-50
2024/04/18 12:07:50;;;;;;;2.67;2.40;;;12.50;95.30;;;;;;5415013;26;19995;-51
2024/04/18 12:10:16;;;;;;;3.47;2.50;;;12.50;95.40;;;;;;5414637;26;20007;-53
2024/04/18 12:12:41;;;;;;;3.63;3.33;;;12.40;95.50;;;;;;5414852;26;20031;-53
2024/04/18 12:15:09;;;;;;;10.77;3.17;;;12.30;97.50;;;;;;5414731;26;20010;-54
2024/04/18 12:17:35;;;;;;;5.80;2.90;;;12.40;99.10;;;;;;5414548;26;20019;-52
2024/04/18 12:20:00;;;;;;;3.03;2.70;;;12.10;99.90;;;;;;5414457;26;19991;-51
2024/04/18 12:22:26;;;;;;;2.88;2.63;;;12.00;99.90;;;;;;5414768;26;20004;-50
2024/04/18 12:24:52;;;;;;;3.05;2.78;;;11.90;99.90;;;;;;5414405;26;20068;-52
2024/04/18 12:27:17;;;;;;;2.28;2.05;;;11.80;99.20;;;;;;5414798;26;19992;-51
2024/04/18 12:29:46;;;;;;;2.00;1.90;;;11.80;99.30;;;;;;5414515;26;20000;-48
2024/04/18 12:32:12;;;;;;;2.45;2.13;;;11.90;99.50;;;;;;5414452;26;20032;-49
2024/04/18 12:34:38;;;;;;;2.00;1.90;;;11.90;99.50;;;;;;5414258;26;19995;-52
2024/04/18 12:37:04;;;;;;;2.45;2.25;;;12.00;99.50;;;;;;5414477;26;20017;-52
2024/04/18 12:39:29;;;;;;;2.50;2.20;;;12.00;99.20;;;;;;5414363;26;20483;-53
2024/04/18 12:41:56;;;;;;;2.35;2.15;;;12.10;99.70;;;;;;5414414;26;20010;-53
2024/04/18 12:44:22;;;;;;;7.50;2.30;;;12.20;99.90;;;;;;5416129;26;20003;-54
2024/04/18 12:46:48;;;;;;;2.10;1.88;;;12.20;99.60;;;;;;5416955;26;20000;-48
2024/04/18 12:49:13;;;;;;;2.53;2.00;;;12.10;99.40;;;;;;5417454;26;20458;-50
2024/04/18 12:51:39;;;;;;;5.78;2.42;;;12.30;99.90;;;;;;5417111;26;20000;-48